Time;durP1;ratioP1;P1;durP2;ratioP2;P2;SDS_P1;SDS_P2;PMS_P1;PMS_P2;Temp;Humidity;BMP_temperature;BMP_pressure;BME280_temperature;BME280_humidity;BME280_pressure;Samples;Min_cycle;Max_cycle;Signal;HPM_P1;HPM_P2
2022/01/15 00:01:37;;;;;;;12.63;6.57;;;;;;;;;;4997287;28;20027;-85
2022/01/15 00:04:03;;;;;;;16.10;7.38;;;;;;;;;;4998724;28;20101;-85
2022/01/15 00:06:29;;;;;;;15.00;7.07;;;;;;;;;;4996986;28;20061;-85
2022/01/15 00:08:55;;;;;;;13.27;6.53;;;;;;;;;;4996986;28;20113;-83
2022/01/15 00:11:21;;;;;;;13.02;7.28;;;;;;;;;;4998598;28;20452;-83
2022/01/15 00:13:55;;;;;;;10.68;6.10;;;;;;;;;;4997311;28;20061;-84
2022/01/15 00:16:45;;;;;;;9.40;6.13;;;;;;;;;;4996105;28;20032;-87
2022/01/15 00:19:13;;;;;;;12.85;6.20;;;;;;;;;;4997245;28;20394;-84
2022/01/15 00:21:39;;;;;;;11.45;5.80;;;;;;;;;;4998520;28;20026;-85
2022/01/15 00:24:05;;;;;;;10.80;5.68;;;;;;;;;;4997267;28;20399;-85
2022/01/15 00:26:32;;;;;;;8.50;4.60;;;;;;;;;;4996346;28;20137;-85
2022/01/15 00:28:58;;;;;;;12.40;5.05;;;;;;;;;;4997141;28;20108;-85
2022/01/15 00:31:24;;;;;;;12.18;5.30;;;;;;;;;;4998497;28;20084;-82
2022/01/15 00:33:50;;;;;;;9.10;4.82;;;;;;;;;;4997674;28;20399;-84
2022/01/15 00:36:17;;;;;;;11.38;5.15;;;;;;;;;;4998562;28;20072;-84
2022/01/15 00:38:43;;;;;;;9.93;5.18;;;;;;;;;;4997176;28;20030;-83
2022/01/15 00:41:09;;;;;;;9.60;5.75;;;;;;;;;;4998632;28;20026;-85
2022/01/15 00:43:35;;;;;;;10.73;4.88;;;;;;;;;;4998299;28;20035;-84
2022/01/15 00:46:01;;;;;;;9.40;5.07;;;;;;;;;;4998317;28;20030;-84
2022/01/15 00:48:28;;;;;;;8.30;5.13;;;;;;;;;;4996453;28;20042;-85
2022/01/15 00:50:54;;;;;;;11.02;5.28;;;;;;;;;;4996467;28;20117;-84
2022/01/15 00:53:20;;;;;;;13.23;6.28;;;;;;;;;;4998355;28;20022;-85
2022/01/15 00:55:46;;;;;;;9.90;5.47;;;;;;;;;;4998057;28;20029;-86
2022/01/15 00:58:13;;;;;;;11.38;5.55;;;;;;;;;;4998030;28;20045;-85
2022/01/15 01:00:39;;;;;;;10.63;5.50;;;;;;;;;;4996845;28;20489;-84
2022/01/15 01:03:05;;;;;;;12.25;5.82;;;;;;;;;;4998780;28;20371;-85
2022/01/15 01:05:31;;;;;;;12.02;6.47;;;;;;;;;;4998802;28;20034;-84
2022/01/15 01:07:57;;;;;;;8.38;5.50;;;;;;;;;;5001088;28;20030;-85
2022/01/15 01:21:55;;;;;;;13.30;6.43;;;;;;;;;;5003726;28;20548;-84
2022/01/15 01:24:05;;;;;;;10.57;5.57;;;;;;;;;;5002747;28;20509;-84
2022/01/15 01:26:56;;;;;;;11.27;5.63;;;;;;;;;;5002698;28;20105;-84
2022/01/15 01:32:07;;;;;;;12.35;5.95;;;;;;;;;;5014864;28;20057;-83
2022/01/15 01:34:36;;;;;;;8.30;5.63;;;;;;;;;;5009624;28;20084;-86
2022/01/15 01:39:41;;;;;;;10.95;5.88;;;;;;;;;;5003549;28;20077;-84
2022/01/15 01:42:14;;;;;;;10.50;5.40;;;;;;;;;;5003131;28;20053;-85
2022/01/15 01:44:42;;;;;;;9.68;5.00;;;;;;;;;;5003006;28;20056;-86
2022/01/15 01:47:23;;;;;;;9.18;5.35;;;;;;;;;;5002211;28;20052;-85
2022/01/15 01:49:49;;;;;;;10.18;5.40;;;;;;;;;;5001199;28;20037;-84
2022/01/15 01:52:15;;;;;;;9.65;5.25;;;;;;;;;;5001636;28;20121;-85
2022/01/15 01:54:41;;;;;;;8.23;4.97;;;;;;;;;;5001639;28;20034;-85
2022/01/15 01:57:07;;;;;;;9.77;5.32;;;;;;;;;;5001801;28;20022;-84
2022/01/15 01:59:33;;;;;;;9.57;5.38;;;;;;;;;;5002023;28;20033;-85
2022/01/15 02:01:59;;;;;;;10.95;5.70;;;;;;;;;;5001001;28;20065;-86
2022/01/15 02:04:25;;;;;;;11.05;5.28;;;;;;;;;;5001873;28;20026;-86
2022/01/15 02:06:51;;;;;;;8.60;5.43;;;;;;;;;;5000855;28;20026;-84
2022/01/15 02:09:20;;;;;;;11.93;6.03;;;;;;;;;;5000987;28;20030;-84
2022/01/15 02:11:46;;;;;;;9.10;5.90;;;;;;;;;;5000074;28;20490;-85
2022/01/15 02:14:24;;;;;;;13.07;5.88;;;;;;;;;;5000756;28;20041;-83
2022/01/15 02:16:50;;;;;;;15.00;5.95;;;;;;;;;;5001022;28;20026;-85
2022/01/15 02:19:16;;;;;;;10.10;4.90;;;;;;;;;;5001466;28;20463;-84
2022/01/15 02:24:17;;;;;;;8.10;5.60;;;;;;;;;;5001768;28;20026;-84
2022/01/15 02:26:43;;;;;;;10.38;5.30;;;;;;;;;;5000910;28;20034;-85
2022/01/15 02:29:09;;;;;;;9.65;5.20;;;;;;;;;;5001017;28;20038;-85
2022/01/15 02:31:37;;;;;;;11.02;4.82;;;;;;;;;;5001232;28;20041;-86
2022/01/15 02:34:04;;;;;;;8.93;4.82;;;;;;;;;;4999812;28;20034;-84
2022/01/15 02:36:31;;;;;;;9.30;4.82;;;;;;;;;;4999500;28;20023;-84
2022/01/15 02:38:58;;;;;;;10.10;5.32;;;;;;;;;;4998072;28;20026;-84
2022/01/15 02:41:25;;;;;;;8.55;5.47;;;;;;;;;;5000162;28;20018;-84
2022/01/15 02:43:51;;;;;;;10.80;5.50;;;;;;;;;;5000271;28;20026;-85
2022/01/15 02:48:51;;;;;;;9.02;5.25;;;;;;;;;;5001166;28;20418;-85
2022/01/15 02:51:17;;;;;;;9.40;4.57;;;;;;;;;;4999799;28;20088;-84
2022/01/15 02:53:44;;;;;;;8.40;4.80;;;;;;;;;;5001228;28;20098;-85
2022/01/15 02:56:10;;;;;;;8.43;4.75;;;;;;;;;;4999626;28;20031;-85
2022/01/15 02:58:36;;;;;;;11.23;5.25;;;;;;;;;;5001547;28;20022;-85
2022/01/15 03:01:03;;;;;;;10.75;4.53;;;;;;;;;;5001350;28;20022;-85
2022/01/15 03:03:29;;;;;;;8.43;4.40;;;;;;;;;;5001434;28;20026;-85
2022/01/15 03:05:55;;;;;;;9.57;4.43;;;;;;;;;;5001794;28;20049;-86
2022/01/15 03:08:21;;;;;;;6.70;4.50;;;;;;;;;;5011704;28;20025;-86
2022/01/15 03:10:48;;;;;;;7.85;4.40;;;;;;;;;;5019463;28;20038;-84
2022/01/15 03:13:14;;;;;;;9.85;4.75;;;;;;;;;;5017945;28;20027;-84
2022/01/15 03:15:40;;;;;;;9.70;4.90;;;;;;;;;;5018487;28;20029;-86
2022/01/15 03:18:06;;;;;;;6.80;4.50;;;;;;;;;;5012743;28;20034;-84
2022/01/15 03:20:32;;;;;;;8.02;5.03;;;;;;;;;;5001449;28;20018;-84
2022/01/15 03:22:58;;;;;;;11.23;4.80;;;;;;;;;;5002002;28;20068;-87
2022/01/15 03:25:25;;;;;;;10.23;5.22;;;;;;;;;;5000527;28;20038;-84
2022/01/15 03:27:51;;;;;;;9.23;4.95;;;;;;;;;;5001645;28;20030;-85
2022/01/15 03:30:17;;;;;;;10.05;4.50;;;;;;;;;;5005550;28;20057;-83
2022/01/15 03:32:43;;;;;;;8.27;4.53;;;;;;;;;;5027195;23;20494;-86
2022/01/15 03:35:12;;;;;;;10.18;4.88;;;;;;;;;;4998876;28;20649;-85
2022/01/15 03:37:39;;;;;;;10.05;4.78;;;;;;;;;;4996644;28;20023;-85
2022/01/15 03:40:07;;;;;;;7.55;4.65;;;;;;;;;;4995114;28;20077;-85
2022/01/15 03:42:33;;;;;;;8.00;4.78;;;;;;;;;;4999949;28;20026;-86
2022/01/15 03:44:59;;;;;;;9.23;4.70;;;;;;;;;;4998956;28;20033;-85
2022/01/15 03:47:25;;;;;;;11.68;4.80;;;;;;;;;;4995054;28;20560;-85
2022/01/15 03:49:51;;;;;;;11.43;5.07;;;;;;;;;;4986957;28;20031;-85
2022/01/15 03:52:17;;;;;;;9.90;5.53;;;;;;;;;;4975170;28;20113;-85
2022/01/15 03:54:43;;;;;;;12.85;6.10;;;;;;;;;;4974604;28;20185;-86
2022/01/15 03:57:09;;;;;;;15.30;6.50;;;;;;;;;;4975587;28;20034;-86
2022/01/15 03:59:35;;;;;;;14.27;6.20;;;;;;;;;;4976061;28;20018;-86
2022/01/15 04:02:01;;;;;;;12.18;6.38;;;;;;;;;;4976209;28;20031;-85
2022/01/15 04:04:27;;;;;;;13.85;6.93;;;;;;;;;;4975756;28;20038;-86
2022/01/15 04:06:53;;;;;;;12.00;7.03;;;;;;;;;;4983266;28;20034;-85
2022/01/15 04:09:19;;;;;;;14.63;7.40;;;;;;;;;;4994828;28;20022;-86
2022/01/15 04:11:46;;;;;;;17.27;7.70;;;;;;;;;;4993238;28;20022;-85
2022/01/15 04:14:12;;;;;;;16.25;8.40;;;;;;;;;;4993885;28;20026;-86
2022/01/15 04:16:38;;;;;;;18.83;8.40;;;;;;;;;;4981129;28;20027;-85
2022/01/15 04:19:07;;;;;;;21.45;10.05;;;;;;;;;;4974550;28;20022;-85
2022/01/15 04:21:33;;;;;;;16.42;8.27;;;;;;;;;;4975051;28;20054;-86
2022/01/15 04:23:59;;;;;;;15.20;8.45;;;;;;;;;;4979636;28;20399;-85
2022/01/15 04:26:26;;;;;;;19.95;8.90;;;;;;;;;;4975281;28;20027;-85
2022/01/15 04:28:53;;;;;;;16.05;8.63;;;;;;;;;;4975141;28;20023;-84
2022/01/15 04:31:20;;;;;;;18.30;8.68;;;;;;;;;;4973664;28;20031;-85
2022/01/15 04:33:46;;;;;;;21.40;9.40;;;;;;;;;;4975621;28;20035;-86
2022/01/15 04:36:12;;;;;;;23.98;10.25;;;;;;;;;;4976502;28;20503;-85
2022/01/15 04:38:38;;;;;;;22.08;9.00;;;;;;;;;;4977306;28;20022;-86
2022/01/15 04:41:05;;;;;;;21.63;9.77;;;;;;;;;;4983317;28;20037;-86
2022/01/15 04:43:31;;;;;;;18.45;9.13;;;;;;;;;;4995283;28;20052;-85
2022/01/15 04:45:57;;;;;;;18.77;8.85;;;;;;;;;;4995087;28;20045;-86
2022/01/15 04:48:23;;;;;;;25.13;9.65;;;;;;;;;;4994390;28;20066;-85
2022/01/15 04:50:49;;;;;;;16.88;9.02;;;;;;;;;;4993333;28;20121;-86
2022/01/15 04:53:16;;;;;;;14.35;6.78;;;;;;;;;;4996284;28;20065;-86
2022/01/15 04:55:42;;;;;;;12.13;6.22;;;;;;;;;;4996715;28;20023;-85
2022/01/15 04:58:08;;;;;;;12.27;6.15;;;;;;;;;;4994225;28;20053;-86
2022/01/15 05:00:34;;;;;;;14.48;6.47;;;;;;;;;;4993404;28;20029;-85
2022/01/15 05:03:01;;;;;;;13.95;5.57;;;;;;;;;;4995658;28;20038;-85
2022/01/15 05:05:28;;;;;;;12.68;5.50;;;;;;;;;;5003835;28;20037;-85
2022/01/15 05:07:55;;;;;;;10.63;5.55;;;;;;;;;;5005048;28;20034;-85
2022/01/15 05:10:25;;;;;;;10.32;5.47;;;;;;;;;;4996244;28;20108;-85
2022/01/15 05:12:55;;;;;;;10.52;5.65;;;;;;;;;;4992900;28;20034;-84
2022/01/15 05:15:21;;;;;;;8.82;5.18;;;;;;;;;;5002187;28;20046;-85
2022/01/15 05:17:47;;;;;;;6.32;4.40;;;;;;;;;;4973033;28;20058;-85
2022/01/15 05:20:17;;;;;;;7.60;4.55;;;;;;;;;;4973921;28;20089;-84
2022/01/15 05:22:43;;;;;;;11.75;5.93;;;;;;;;;;4972677;28;20035;-85
2022/01/15 05:25:13;;;;;;;10.40;5.03;;;;;;;;;;4972980;28;20437;-85
2022/01/15 05:27:39;;;;;;;8.07;4.35;;;;;;;;;;4973489;28;20027;-85
2022/01/15 05:30:05;;;;;;;11.38;5.10;;;;;;;;;;4974931;28;20141;-85
2022/01/15 05:32:31;;;;;;;10.75;5.00;;;;;;;;;;4973816;28;20113;-85
2022/01/15 05:34:57;;;;;;;11.45;5.43;;;;;;;;;;4975353;28;20475;-85
2022/01/15 05:37:26;;;;;;;12.45;5.70;;;;;;;;;;4973680;28;20065;-85
2022/01/15 05:39:53;;;;;;;10.60;5.32;;;;;;;;;;4974205;28;20027;-85
2022/01/15 05:42:19;;;;;;;7.70;4.75;;;;;;;;;;5003800;28;20030;-84
2022/01/15 05:44:45;;;;;;;6.90;4.65;;;;;;;;;;4996064;28;20437;-85
2022/01/15 05:47:11;;;;;;;9.63;4.75;;;;;;;;;;4992113;28;20062;-85
2022/01/15 05:49:38;;;;;;;11.88;5.88;;;;;;;;;;4994116;28;20442;-85
2022/01/15 05:52:04;;;;;;;11.40;5.30;;;;;;;;;;4993014;28;20502;-85
2022/01/15 05:54:30;;;;;;;9.50;4.90;;;;;;;;;;4998258;28;20105;-85
2022/01/15 05:56:56;;;;;;;11.05;5.22;;;;;;;;;;4997180;28;20027;-85
2022/01/15 05:59:22;;;;;;;10.52;5.88;;;;;;;;;;4998317;28;20029;-85
2022/01/15 06:01:48;;;;;;;10.05;5.60;;;;;;;;;;4998613;28;20022;-86
2022/01/15 06:04:15;;;;;;;14.07;5.70;;;;;;;;;;4998964;28;20030;-84
2022/01/15 06:06:41;;;;;;;12.73;6.07;;;;;;;;;;4998666;28;20137;-85
2022/01/15 06:09:07;;;;;;;16.85;6.07;;;;;;;;;;4998135;28;20042;-85
2022/01/15 06:11:34;;;;;;;9.48;5.07;;;;;;;;;;4998696;28;20136;-85
2022/01/15 06:14:00;;;;;;;11.95;6.05;;;;;;;;;;4997354;28;20056;-84
2022/01/15 06:16:27;;;;;;;15.25;6.20;;;;;;;;;;4985782;28;20066;-86
2022/01/15 06:18:53;;;;;;;14.60;6.13;;;;;;;;;;4979145;28;20023;-86
2022/01/15 06:21:19;;;;;;;16.65;6.50;;;;;;;;;;4980685;28;20154;-86
2022/01/15 06:23:45;;;;;;;12.48;6.15;;;;;;;;;;4982414;28;20066;-86
2022/01/15 06:26:11;;;;;;;15.35;6.53;;;;;;;;;;4982818;28;20495;-85
2022/01/15 06:28:37;;;;;;;8.70;5.20;;;;;;;;;;4979850;28;20027;-86
2022/01/15 06:31:03;;;;;;;12.63;5.80;;;;;;;;;;4979788;28;20089;-83
2022/01/15 06:33:29;;;;;;;13.15;6.30;;;;;;;;;;4979116;28;20506;-86
2022/01/15 06:35:55;;;;;;;12.18;6.13;;;;;;;;;;4978660;28;20027;-86
2022/01/15 06:38:21;;;;;;;10.30;6.30;;;;;;;;;;4983902;28;20034;-87
2022/01/15 06:40:47;;;;;;;13.38;6.40;;;;;;;;;;4984812;28;20505;-86
2022/01/15 06:43:13;;;;;;;11.35;5.82;;;;;;;;;;4998954;28;20042;-86
2022/01/15 06:45:42;;;;;;;10.23;6.10;;;;;;;;;;4999284;28;20062;-84
2022/01/15 06:48:08;;;;;;;13.85;6.78;;;;;;;;;;4997242;28;20042;-86
2022/01/15 06:50:36;;;;;;;13.40;6.35;;;;;;;;;;4997644;28;20026;-86
2022/01/15 06:53:02;;;;;;;12.68;7.13;;;;;;;;;;4998871;28;20037;-85
2022/01/15 06:55:28;;;;;;;15.32;7.30;;;;;;;;;;4998187;28;20085;-86
2022/01/15 06:57:54;;;;;;;17.27;7.25;;;;;;;;;;4997085;28;20053;-86
2022/01/15 07:00:20;;;;;;;14.98;7.15;;;;;;;;;;4997236;28;20023;-86
2022/01/15 07:02:46;;;;;;;15.45;7.72;;;;;;;;;;4998350;28;20023;-86
2022/01/15 07:05:12;;;;;;;14.27;7.40;;;;;;;;;;4997797;28;20041;-86
2022/01/15 07:07:44;;;;;;;15.38;7.53;;;;;;;;;;4997466;28;20031;-86
2022/01/15 07:10:10;;;;;;;16.50;8.98;;;;;;;;;;4996894;28;20046;-83
2022/01/15 07:12:36;;;;;;;15.40;7.80;;;;;;;;;;5004003;28;20065;-83
2022/01/15 07:15:03;;;;;;;19.02;8.57;;;;;;;;;;4998377;28;20030;-83
2022/01/15 07:17:29;;;;;;;22.67;10.10;;;;;;;;;;4976854;28;20415;-84
2022/01/15 07:19:55;;;;;;;20.95;10.02;;;;;;;;;;4976905;28;20483;-85
2022/01/15 07:22:21;;;;;;;21.60;10.38;;;;;;;;;;4976983;28;20033;-85
2022/01/15 07:24:47;;;;;;;24.75;10.70;;;;;;;;;;4975089;28;20394;-85
2022/01/15 07:27:13;;;;;;;30.83;12.90;;;;;;;;;;4976345;28;20034;-83
2022/01/15 07:29:39;;;;;;;28.65;11.90;;;;;;;;;;4978686;28;20030;-84
2022/01/15 07:32:05;;;;;;;23.90;12.15;;;;;;;;;;4979974;28;20038;-84
2022/01/15 07:34:31;;;;;;;27.27;11.98;;;;;;;;;;4976714;28;20130;-85
2022/01/15 07:36:58;;;;;;;25.75;11.40;;;;;;;;;;4976485;28;20023;-84
2022/01/15 07:39:24;;;;;;;29.75;12.65;;;;;;;;;;4979023;28;20037;-84
2022/01/15 07:41:50;;;;;;;29.55;11.93;;;;;;;;;;4991139;28;20097;-85
2022/01/15 07:44:17;;;;;;;26.35;11.18;;;;;;;;;;4986684;28;20418;-85
2022/01/15 07:46:43;;;;;;;30.63;11.95;;;;;;;;;;4984598;28;20050;-85
2022/01/15 07:49:09;;;;;;;26.80;12.73;;;;;;;;;;4977057;28;20057;-84
2022/01/15 07:51:35;;;;;;;27.08;11.82;;;;;;;;;;4977055;28;20094;-84
2022/01/15 07:54:01;;;;;;;28.60;11.88;;;;;;;;;;4976306;28;20026;-85
2022/01/15 07:56:27;;;;;;;32.25;13.57;;;;;;;;;;4974971;28;20026;-85
2022/01/15 07:58:53;;;;;;;29.23;13.40;;;;;;;;;;4976002;28;20339;-85
2022/01/15 08:01:19;;;;;;;29.67;13.32;;;;;;;;;;4975994;28;20034;-85
2022/01/15 08:03:48;;;;;;;26.05;11.25;;;;;;;;;;4977385;28;20031;-84
2022/01/15 08:06:14;;;;;;;25.92;11.68;;;;;;;;;;4975810;28;20038;-85
2022/01/15 08:08:41;;;;;;;24.45;11.35;;;;;;;;;;4976469;28;20015;-84
2022/01/15 08:11:07;;;;;;;26.77;11.50;;;;;;;;;;4991343;28;20015;-85
2022/01/15 08:13:33;;;;;;;20.75;10.23;;;;;;;;;;4994940;28;20043;-83
2022/01/15 08:16:01;;;;;;;24.50;11.60;;;;;;;;;;4988395;28;20031;-83
2022/01/15 08:18:28;;;;;;;27.98;11.43;;;;;;;;;;4977231;28;20023;-84
2022/01/15 08:20:54;;;;;;;26.80;11.68;;;;;;;;;;4976319;28;20499;-85
2022/01/15 08:23:20;;;;;;;20.67;11.43;;;;;;;;;;4974873;28;20023;-85
2022/01/15 08:25:47;;;;;;;20.02;10.27;;;;;;;;;;4975856;28;20031;-84
2022/01/15 08:28:13;;;;;;;25.70;11.02;;;;;;;;;;4973861;28;20058;-86
2022/01/15 08:30:39;;;;;;;23.42;10.95;;;;;;;;;;4978269;28;20035;-84
2022/01/15 08:33:05;;;;;;;21.70;11.07;;;;;;;;;;4974717;28;20069;-85
2022/01/15 08:35:31;;;;;;;22.13;10.45;;;;;;;;;;4977924;28;20027;-83
2022/01/15 08:38:02;;;;;;;21.70;10.35;;;;;;;;;;4976108;28;20030;-86
2022/01/15 08:40:46;;;;;;;16.95;10.02;;;;;;;;;;4978871;28;20097;-86
2022/01/15 08:46:08;;;;;;;21.25;9.50;;;;;;;;;;4933542;29;20038;-86
2022/01/15 08:48:34;;;;;;;18.92;9.18;;;;;;;;;;4934893;28;20099;-86
2022/01/15 08:57:36;;;;;;;22.05;9.65;;;;;;;;;;4965976;28;20058;-87
2022/01/15 09:00:04;;;;;;;18.70;9.82;;;;;;;;;;4974043;28;20031;-86
2022/01/15 09:02:30;;;;;;;20.23;9.98;;;;;;;;;;5333640;23;20043;-87
2022/01/15 09:08:29;;;;;;;21.60;9.85;;;;;;;;;;4994318;28;20105;-86
2022/01/15 09:11:21;;;;;;;24.75;10.70;;;;;;;;;;5004320;28;20117;-86
2022/01/15 09:13:48;;;;;;;21.77;10.10;;;;;;;;;;4962527;28;20151;-86
2022/01/15 09:16:14;;;;;;;23.30;11.70;;;;;;;;;;4973785;28;20138;-86
2022/01/15 09:18:43;;;;;;;22.77;10.70;;;;;;;;;;4973771;28;20042;-86
2022/01/15 09:21:31;;;;;;;26.77;12.30;;;;;;;;;;4973853;28;20030;-86
2022/01/15 09:23:57;;;;;;;21.83;11.10;;;;;;;;;;4971474;28;20499;-86
2022/01/15 09:26:46;;;;;;;23.27;10.90;;;;;;;;;;4973979;28;20170;-86
2022/01/15 09:32:14;;;;;;;19.98;9.70;;;;;;;;;;4989027;23;20060;-85
2022/01/15 09:34:40;;;;;;;16.20;8.57;;;;;;;;;;4997526;28;20038;-86
2022/01/15 09:37:50;;;;;;;;;;;;;;;;;;;;;
2022/01/15 09:49:19;;;;;;;17.23;8.75;;;;;;;;;;5646508;22;20058;-85
2022/01/15 09:51:46;;;;;;;15.25;8.77;;;;;;;;;;4999439;28;20033;-86
2022/01/15 09:57:26;;;;;;;14.88;8.18;;;;;;;;;;4952010;28;20808;-87
2022/01/15 10:08:37;;;;;;;13.02;7.75;;;;;;;;;;5208462;22;20054;-86
2022/01/15 10:11:11;;;;;;;12.18;7.90;;;;;;;;;;4937697;29;20028;-86
2022/01/15 10:17:33;;;;;;;11.68;6.68;;;;;;;;;;4956647;29;20403;-87
2022/01/15 10:20:10;;;;;;;11.30;6.90;;;;;;;;;;4956455;29;20027;-87
2022/01/15 10:22:44;;;;;;;13.18;7.30;;;;;;;;;;4973141;28;20038;-88
2022/01/15 10:25:14;;;;;;;11.13;6.63;;;;;;;;;;4976723;28;20043;-87
2022/01/15 10:28:00;;;;;;;11.98;6.85;;;;;;;;;;4977304;28;20022;-88
2022/01/15 10:30:28;;;;;;;12.18;6.88;;;;;;;;;;4998691;28;20026;-89
2022/01/15 10:32:58;;;;;;;10.73;6.55;;;;;;;;;;4981372;28;20043;-89
2022/01/15 10:38:58;;;;;;;10.07;6.30;;;;;;;;;;4881674;29;20088;-88
2022/01/15 10:44:51;;;;;;;10.82;6.20;;;;;;;;;;5102688;23;20046;-87
2022/01/15 10:47:28;;;;;;;12.68;7.05;;;;;;;;;;4996740;28;20142;-88
2022/01/15 10:50:03;;;;;;;9.90;6.63;;;;;;;;;;4998234;28;20027;-88
2022/01/15 10:52:40;;;;;;;10.35;6.70;;;;;;;;;;4994909;28;20022;-88
2022/01/15 10:55:15;;;;;;;11.73;7.00;;;;;;;;;;4994332;28;20033;-88
2022/01/15 10:58:14;;;;;;;12.88;7.07;;;;;;;;;;4994396;28;20022;-87
2022/01/15 11:00:51;;;;;;;10.48;7.18;;;;;;;;;;4962959;28;20371;-87
2022/01/15 11:03:36;;;;;;;11.27;7.45;;;;;;;;;;4996571;28;20022;-89
2022/01/15 11:06:31;;;;;;;10.93;6.88;;;;;;;;;;5006855;28;20033;-88
2022/01/15 11:12:31;;;;;;;10.77;6.07;;;;;;;;;;4952583;28;20435;-88
2022/01/15 11:15:19;;;;;;;11.32;6.95;;;;;;;;;;4997752;28;20066;-88
2022/01/15 11:17:46;;;;;;;11.45;7.40;;;;;;;;;;4999616;28;20096;-88
2022/01/15 11:20:20;;;;;;;10.32;6.40;;;;;;;;;;5003561;28;20506;-88
2022/01/15 11:23:16;;;;;;;9.88;6.75;;;;;;;;;;4997233;28;20494;-88
2022/01/15 11:25:44;;;;;;;8.68;6.03;;;;;;;;;;5001531;28;20030;-89
2022/01/15 11:28:16;;;;;;;9.60;6.10;;;;;;;;;;4999943;28;20022;-87
2022/01/15 11:30:45;;;;;;;10.32;6.53;;;;;;;;;;4995720;28;20053;-86
2022/01/15 11:36:42;;;;;;;10.00;6.68;;;;;;;;;;4994712;28;20081;-88
2022/01/15 11:39:29;;;;;;;8.13;6.10;;;;;;;;;;4994748;28;20029;-88
2022/01/15 11:41:55;;;;;;;9.20;6.20;;;;;;;;;;4993682;28;20068;-88
2022/01/15 11:44:32;;;;;;;10.75;6.63;;;;;;;;;;4997359;28;20034;-88
2022/01/15 11:47:00;;;;;;;10.05;6.45;;;;;;;;;;4994393;28;20060;-88
2022/01/15 11:49:26;;;;;;;9.95;6.70;;;;;;;;;;4994647;28;20022;-89
2022/01/15 11:52:22;;;;;;;10.93;7.10;;;;;;;;;;4993105;28;20030;-88
2022/01/15 11:55:20;;;;;;;10.30;6.82;;;;;;;;;;4990751;28;20112;-88
2022/01/15 11:57:48;;;;;;;12.77;8.48;;;;;;;;;;5000111;28;20033;-88
2022/01/15 12:00:20;;;;;;;13.95;7.90;;;;;;;;;;5002302;28;20026;-87
2022/01/15 12:02:58;;;;;;;12.50;7.72;;;;;;;;;;5008182;28;20077;-87
2022/01/15 12:05:25;;;;;;;13.65;8.35;;;;;;;;;;5008678;28;20022;-88
2022/01/15 12:08:03;;;;;;;17.98;10.07;;;;;;;;;;5005290;28;20018;-87
2022/01/15 12:10:40;;;;;;;14.38;9.80;;;;;;;;;;5010961;28;20034;-87
2022/01/15 12:13:18;;;;;;;14.68;9.38;;;;;;;;;;5005399;28;20045;-87
2022/01/15 12:15:45;;;;;;;14.15;8.90;;;;;;;;;;5009993;28;20524;-87
2022/01/15 12:18:21;;;;;;;14.95;8.77;;;;;;;;;;5005921;28;20044;-84
2022/01/15 12:20:49;;;;;;;18.20;9.32;;;;;;;;;;5006091;28;20041;-83
2022/01/15 12:23:18;;;;;;;16.02;9.25;;;;;;;;;;5001591;28;20414;-84
2022/01/15 12:25:45;;;;;;;15.50;9.15;;;;;;;;;;4999647;28;20129;-83
2022/01/15 12:28:15;;;;;;;17.95;9.63;;;;;;;;;;5001639;28;20537;-84
2022/01/15 12:30:46;;;;;;;19.00;10.65;;;;;;;;;;5000373;28;20034;-83
2022/01/15 12:33:13;;;;;;;22.75;10.38;;;;;;;;;;4998490;28;20026;-83
2022/01/15 12:35:47;;;;;;;22.33;11.70;;;;;;;;;;4998829;28;20040;-86
2022/01/15 12:38:49;;;;;;;19.77;10.00;;;;;;;;;;4998280;28;20474;-86
2022/01/15 12:41:18;;;;;;;;;;;;;;;;;;4984369;28;20121;-85
2022/01/15 12:52:15;;;;;;;24.63;11.73;;;;;;;;;;5006102;28;20127;-85
2022/01/15 12:54:41;;;;;;;23.92;11.07;;;;;;;;;;5015963;28;20037;-85
2022/01/15 12:57:26;;;;;;;18.30;11.15;;;;;;;;;;5000833;28;20073;-85
2022/01/15 13:00:36;;;;;;;19.23;10.27;;;;;;;;;;4999012;28;20094;-85
2022/01/15 13:03:22;;;;;;;21.27;10.37;;;;;;;;;;5005444;28;20506;-85
2022/01/15 13:05:56;;;;;;;19.27;10.10;;;;;;;;;;4998571;28;20423;-84
2022/01/15 13:08:34;;;;;;;19.73;10.40;;;;;;;;;;4995092;28;20033;-85
2022/01/15 13:11:06;;;;;;;21.95;10.48;;;;;;;;;;4999641;28;20153;-85
2022/01/15 13:13:38;;;;;;;22.40;11.60;;;;;;;;;;4998951;28;20402;-85
2022/01/15 13:16:07;;;;;;;20.17;10.98;;;;;;;;;;4996385;28;20109;-84
2022/01/15 13:18:37;;;;;;;18.77;10.60;;;;;;;;;;5008365;28;20023;-85
2022/01/15 13:21:07;;;;;;;20.58;11.00;;;;;;;;;;5008635;28;20121;-85
2022/01/15 13:23:43;;;;;;;20.58;10.68;;;;;;;;;;5001364;28;20101;-85
2022/01/15 13:26:10;;;;;;;20.33;11.02;;;;;;;;;;4997946;28;20397;-84
2022/01/15 13:28:37;;;;;;;16.63;9.55;;;;;;;;;;4998795;28;20049;-86
2022/01/15 13:31:03;;;;;;;19.85;10.32;;;;;;;;;;5001348;28;20057;-86
2022/01/15 13:33:34;;;;;;;16.85;9.73;;;;;;;;;;5000003;28;20026;-85
2022/01/15 13:36:03;;;;;;;14.88;8.75;;;;;;;;;;4998631;28;20097;-84
2022/01/15 13:38:32;;;;;;;17.20;8.98;;;;;;;;;;4999256;28;20026;-85
2022/01/15 13:41:09;;;;;;;16.23;8.60;;;;;;;;;;4996760;28;20041;-86
2022/01/15 13:43:35;;;;;;;14.57;8.70;;;;;;;;;;4997253;28;20022;-86
2022/01/15 13:46:05;;;;;;;13.52;8.52;;;;;;;;;;4994795;28;20026;-86
2022/01/15 13:48:31;;;;;;;17.67;8.70;;;;;;;;;;4995659;28;20069;-87
2022/01/15 13:53:44;;;;;;;17.50;7.90;;;;;;;;;;4996760;28;20042;-86
2022/01/15 13:56:22;;;;;;;17.80;9.00;;;;;;;;;;4995040;28;20443;-86
2022/01/15 13:58:48;;;;;;;13.80;8.30;;;;;;;;;;4997550;28;20069;-87
2022/01/15 14:01:21;;;;;;;14.98;8.73;;;;;;;;;;4997424;28;20025;-87
2022/01/15 14:06:51;;;;;;;14.77;8.25;;;;;;;;;;4997087;28;20040;-88
2022/01/15 14:09:18;;;;;;;14.95;8.43;;;;;;;;;;4995061;28;20026;-89
2022/01/15 14:12:02;;;;;;;15.25;8.20;;;;;;;;;;4995660;28;20486;-89
2022/01/15 14:35:12;;;;;;;15.07;8.07;;;;;;;;;;5024853;22;20074;-86
2022/01/15 14:38:01;;;;;;;13.73;7.95;;;;;;;;;;4995535;28;20039;-85
2022/01/15 14:46:35;;;;;;;14.07;7.95;;;;;;;;;;4936191;29;20111;-86
2022/01/15 14:52:54;;;;;;;;;;;;;;;;;;;;;
2022/01/15 14:55:26;;;;;;;13.40;7.53;;;;;;;;;;4953389;28;20463;-85
2022/01/15 15:08:25;;;;;;;16.10;8.57;;;;;;;;;;4881474;29;20634;-84
2022/01/15 15:11:00;;;;;;;16.95;8.95;;;;;;;;;;4921447;29;20062;-85
2022/01/15 15:17:38;;;;;;;;;;;;;;;;;;;;;
2022/01/15 15:27:43;;;;;;;;;;;;;;;;;;;;;
2022/01/15 15:30:11;;;;;;;;;;;;;;;;;;;;;
2022/01/15 15:33:54;;;;;;;;;;;;;;;;;;;;;
2022/01/15 15:36:10;;;;;;;25.85;12.80;;;;;;;;;;4967449;28;20142;-85
2022/01/15 15:38:38;;;;;;;32.20;13.63;;;;;;;;;;4979780;28;20054;-84
2022/01/15 15:41:17;;;;;;;27.80;13.05;;;;;;;;;;4983660;28;20033;-85
2022/01/15 15:44:20;;;;;;;31.60;13.45;;;;;;;;;;4982669;28;20057;-85
2022/01/15 15:50:13;;;;;;;33.33;14.15;;;;;;;;;;4979472;28;20031;-84
2022/01/15 15:52:39;;;;;;;32.95;13.80;;;;;;;;;;4962723;28;20573;-85
2022/01/15 15:55:42;;;;;;;;;;;;;;;;;;;;;
2022/01/15 15:58:20;;;;;;;39.25;15.60;;;;;;;;;;4978048;28;20031;-86
2022/01/15 16:00:55;;;;;;;39.40;16.55;;;;;;;;;;4984336;28;20041;-85
2022/01/15 16:03:37;;;;;;;42.53;15.32;;;;;;;;;;4987027;28;20150;-85
2022/01/15 16:06:11;;;;;;;44.90;17.38;;;;;;;;;;4986959;28;20030;-84
2022/01/15 16:09:01;;;;;;;42.95;17.17;;;;;;;;;;4988162;28;20027;-87
2022/01/15 16:11:27;;;;;;;41.72;16.65;;;;;;;;;;4979986;28;20026;-87
2022/01/15 16:20:17;;;;;;;42.75;16.50;;;;;;;;;;5115539;23;20046;-85
2022/01/15 16:32:17;;;;;;;;;;;;;;;;;;;;;
2022/01/15 16:35:13;;;;;;;47.20;15.88;;;;;;;;;;5017978;28;20034;-85
2022/01/15 16:42:46;;;;;;;49.17;16.75;;;;;;;;;;5017799;28;20076;-86
2022/01/15 16:45:20;;;;;;;51.28;19.73;;;;;;;;;;5019170;28;20007;-85
2022/01/15 16:47:47;;;;;;;54.72;18.45;;;;;;;;;;5017682;28;20041;-86
2022/01/15 16:53:42;;;;;;;52.53;18.10;;;;;;;;;;4924244;29;20043;-86
2022/01/15 16:58:53;;;;;;;52.33;17.65;;;;;;;;;;5823699;22;20053;-86
2022/01/15 17:04:28;;;;;;;;;;;;;;;;;;;;;
2022/01/15 17:13:07;;;;;;;44.35;18.10;;;;;;;;;;5349284;22;20069;-86
2022/01/15 17:15:33;;;;;;;53.38;19.08;;;;;;;;;;5016940;28;20030;-83
2022/01/15 17:18:30;;;;;;;61.78;20.65;;;;;;;;;;5016750;28;20011;-88
2022/01/15 17:21:19;;;;;;;54.95;21.38;;;;;;;;;;5015500;28;20090;-85
2022/01/15 17:23:45;;;;;;;55.10;21.23;;;;;;;;;;5016279;28;20082;-84
2022/01/15 17:26:29;;;;;;;46.78;19.00;;;;;;;;;;5015636;28;20022;-84
2022/01/15 17:31:41;;;;;;;54.25;20.65;;;;;;;;;;5648396;23;20038;-86
2022/01/15 17:34:10;;;;;;;62.30;21.63;;;;;;;;;;4977651;28;20069;-86
2022/01/15 17:36:36;;;;;;;58.75;21.77;;;;;;;;;;4977011;28;20032;-86
2022/01/15 18:08:37;;;;;;;59.10;21.25;;;;;;;;;;4993826;28;20057;-85
2022/01/15 18:14:08;;;;;;;60.13;20.10;;;;;;;;;;5042516;22;20453;-85
2022/01/15 18:16:35;;;;;;;56.45;20.90;;;;;;;;;;4999763;28;20345;-86
2022/01/15 18:19:01;;;;;;;50.13;20.45;;;;;;;;;;5000031;28;20030;-84
2022/01/15 18:21:27;;;;;;;61.78;20.23;;;;;;;;;;4999547;28;20026;-84
2022/01/15 18:24:10;;;;;;;53.80;20.40;;;;;;;;;;4999278;28;20083;-85
2022/01/15 18:26:56;;;;;;;59.75;20.17;;;;;;;;;;4996997;28;20034;-85
2022/01/15 18:29:25;;;;;;;52.17;19.67;;;;;;;;;;4998044;28;20026;-85
2022/01/15 18:31:52;;;;;;;54.72;20.73;;;;;;;;;;4998573;28;20026;-86
2022/01/15 18:34:20;;;;;;;58.75;20.73;;;;;;;;;;4996800;28;20050;-85